createdAt,value
2022-07-30T00:00:54.224Z,18.05
2022-07-30T00:03:22.188Z,18.11
2022-07-30T00:05:50.074Z,18.08
2022-07-30T00:08:17.575Z,17.91
2022-07-30T00:10:45.121Z,18.00
2022-07-30T00:13:14.265Z,17.98
2022-07-30T00:15:43.329Z,17.92
2022-07-30T00:18:11.945Z,18.07
2022-07-30T00:20:42.779Z,18.07
2022-07-30T00:23:12.045Z,18.12
2022-07-30T00:25:39.589Z,18.10
2022-07-30T00:28:07.857Z,18.01
2022-07-30T00:30:35.429Z,18.06
2022-07-30T00:33:04.805Z,18.08
2022-07-30T00:35:35.879Z,17.96
2022-07-30T00:38:05.518Z,17.89
2022-07-30T00:40:33.100Z,17.98
2022-07-30T00:43:00.709Z,18.03
2022-07-30T00:45:28.623Z,17.90
2022-07-30T00:47:56.174Z,17.92
2022-07-30T00:50:25.060Z,18.01
2022-07-30T00:52:52.634Z,18.04
2022-07-30T00:55:20.374Z,17.93
2022-07-30T00:57:47.934Z,17.89
2022-07-30T01:00:17.257Z,17.87
2022-07-30T01:02:44.861Z,17.97
2022-07-30T01:05:13.145Z,18.09
2022-07-30T01:07:45.042Z,18.07
2022-07-30T01:10:14.210Z,18.05
2022-07-30T01:12:42.503Z,17.83
2022-07-30T01:15:11.223Z,17.55
2022-07-30T01:17:39.026Z,17.58
2022-07-30T01:20:10.968Z,17.82
2022-07-30T01:22:48.973Z,17.80
2022-07-30T01:25:20.213Z,17.78
2022-07-30T01:27:51.871Z,17.71
2022-07-30T01:30:22.144Z,17.84
2022-07-30T01:32:50.569Z,17.91
2022-07-30T01:35:19.858Z,17.84
2022-07-30T01:37:48.054Z,17.87
2022-07-30T01:40:16.091Z,17.92
2022-07-30T01:42:47.306Z,17.96
2022-07-30T01:45:16.957Z,17.85
2022-07-30T01:47:44.775Z,17.88
2022-07-30T01:50:14.304Z,17.93
2022-07-30T01:52:44.644Z,17.83
2022-07-30T01:55:18.179Z,17.83
2022-07-30T01:57:46.745Z,17.84
2022-07-30T02:00:16.141Z,17.78
2022-07-30T02:02:49.414Z,17.76
2022-07-30T02:05:19.806Z,17.83
2022-07-30T02:07:53.808Z,17.92
2022-07-30T02:10:29.443Z,17.81
2022-07-30T02:13:02.281Z,17.77
2022-07-30T02:15:35.502Z,17.78
2022-07-30T02:18:05.513Z,17.76
2022-07-30T02:20:35.848Z,17.74
2022-07-30T02:23:08.040Z,17.67
2022-07-30T02:25:37.037Z,17.68
2022-07-30T02:28:17.808Z,17.69
2022-07-30T02:30:49.615Z,17.67
2022-07-30T02:33:18.471Z,17.69
2022-07-30T02:35:46.395Z,17.77
2022-07-30T02:38:16.930Z,17.78
2022-07-30T02:40:45.265Z,17.77
2022-07-30T02:43:13.022Z,17.70
2022-07-30T02:45:41.528Z,17.58
2022-07-30T02:48:11.449Z,17.58
2022-07-30T02:50:59.436Z,17.42
2022-07-30T02:53:28.211Z,17.62
2022-07-30T02:55:57.191Z,17.70
2022-07-30T02:58:26.266Z,17.71
2022-07-30T03:00:55.996Z,17.69
2022-07-30T03:03:28.919Z,17.73
2022-07-30T03:05:57.620Z,17.68
2022-07-30T03:08:27.762Z,17.50
2022-07-30T03:10:56.257Z,17.62
2022-07-30T03:13:25.805Z,17.59
2022-07-30T03:15:55.888Z,17.17
2022-07-30T03:18:25.778Z,17.43
2022-07-30T03:20:56.341Z,17.58
2022-07-30T03:23:24.589Z,17.35
2022-07-30T03:25:56.102Z,17.29
2022-07-30T03:28:24.634Z,17.41
2022-07-30T03:30:52.548Z,17.56
2022-07-30T03:33:20.418Z,17.63
2022-07-30T03:35:51.222Z,17.66
2022-07-30T03:38:19.347Z,17.66
2022-07-30T03:40:47.285Z,17.72
2022-07-30T03:43:32.785Z,17.71
2022-07-30T03:46:04.118Z,17.72
2022-07-30T03:48:35.511Z,17.39
2022-07-30T03:51:07.533Z,17.62
2022-07-30T03:53:35.230Z,17.73
2022-07-30T03:56:25.626Z,17.79
2022-07-30T03:59:02.939Z,17.67
2022-07-30T04:01:30.662Z,17.76
2022-07-30T04:04:07.378Z,17.74
2022-07-30T04:06:39.656Z,17.66
2022-07-30T04:09:08.339Z,17.45
2022-07-30T04:11:40.759Z,17.65
2022-07-30T04:14:12.109Z,17.65
2022-07-30T04:16:47.013Z,17.58
2022-07-30T04:19:21.309Z,17.68
2022-07-30T04:21:52.034Z,17.79
2022-07-30T04:24:20.048Z,17.83
2022-07-30T04:26:48.861Z,17.65
2022-07-30T04:29:21.368Z,17.73
2022-07-30T04:31:52.740Z,17.74
2022-07-30T04:34:29.405Z,17.82
2022-07-30T04:36:59.252Z,17.71
2022-07-30T04:39:29.414Z,17.81
2022-07-30T04:41:56.938Z,17.94
2022-07-30T04:44:35.618Z,17.94
2022-07-30T04:47:22.871Z,17.85
2022-07-30T04:50:07.259Z,17.98
2022-07-30T04:52:36.964Z,18.02
2022-07-30T04:55:08.285Z,18.06
2022-07-30T04:57:38.937Z,18.07
2022-07-30T05:00:07.631Z,18.13
2022-07-30T05:02:39.197Z,18.14
2022-07-30T05:05:08.513Z,18.21
2022-07-30T05:07:38.116Z,18.23
2022-07-30T05:10:07.293Z,18.27
2022-07-30T05:12:37.450Z,18.21
2022-07-30T05:15:06.136Z,18.27
2022-07-30T05:17:33.903Z,18.41
2022-07-30T05:20:04.476Z,18.52
2022-07-30T05:22:50.817Z,18.43
2022-07-30T05:25:19.907Z,18.42
2022-07-30T05:27:48.241Z,18.24
2022-07-30T05:30:16.494Z,18.15
2022-07-30T05:32:48.250Z,18.12
2022-07-30T05:35:16.097Z,18.25
2022-07-30T05:37:45.142Z,18.26
2022-07-30T05:40:13.556Z,18.02
2022-07-30T05:43:07.856Z,17.92
2022-07-30T05:45:35.431Z,17.96
2022-07-30T05:48:03.140Z,18.04
2022-07-30T05:50:30.891Z,18.11
2022-07-30T05:52:59.915Z,18.08
2022-07-30T05:55:47.415Z,18.22
2022-07-30T05:58:36.675Z,18.34
2022-07-30T06:01:04.318Z,18.29
2022-07-30T06:03:33.850Z,18.26
2022-07-30T06:06:23.335Z,18.32
2022-07-30T06:08:52.755Z,18.58
2022-07-30T06:11:20.519Z,18.75
2022-07-30T06:13:52.024Z,18.98
2022-07-30T06:16:19.964Z,19.32
2022-07-30T06:18:47.546Z,19.41
2022-07-30T06:21:25.781Z,19.59
2022-07-30T06:24:09.800Z,19.67
2022-07-30T06:26:41.322Z,20.05
2022-07-30T06:29:09.619Z,20.60
2022-07-30T06:31:41.481Z,21.02
2022-07-30T06:34:10.953Z,20.74
2022-07-30T06:36:41.956Z,20.55
2022-07-30T06:39:53.849Z,20.22
2022-07-30T06:42:24.454Z,20.16
2022-07-30T06:45:27.182Z,20.26
2022-07-30T06:48:14.455Z,20.38
2022-07-30T06:50:42.726Z,20.39
2022-07-30T06:53:11.087Z,20.44
2022-07-30T06:56:08.982Z,20.78
2022-07-30T06:58:47.095Z,21.25
2022-07-30T07:01:33.650Z,21.67
2022-07-30T07:04:01.765Z,21.34
2022-07-30T07:06:29.351Z,21.33
2022-07-30T07:08:57.163Z,21.15
2022-07-30T07:11:34.246Z,21.17
2022-07-30T07:14:06.858Z,21.16
2022-07-30T07:16:36.167Z,21.30
2022-07-30T07:20:00.336Z,21.50
2022-07-30T07:22:11.893Z,21.43
2022-07-30T07:24:39.634Z,22.32
2022-07-30T07:27:15.358Z,23.35
2022-07-30T07:30:05.673Z,24.06
2022-07-30T07:32:32.549Z,23.75
2022-07-30T07:35:00.105Z,24.09
2022-07-30T07:37:27.814Z,24.64
2022-07-30T07:39:56.110Z,24.87
2022-07-30T07:42:25.157Z,25.50
2022-07-30T07:44:53.967Z,25.52
2022-07-30T07:47:21.573Z,25.98
2022-07-30T07:50:04.302Z,26.63
2022-07-30T07:52:31.967Z,26.80
2022-07-30T07:54:59.470Z,27.40
2022-07-30T07:57:31.350Z,27.19
2022-07-30T07:59:59.443Z,27.26
2022-07-30T08:02:28.227Z,27.77
2022-07-30T08:05:00.860Z,27.67
2022-07-30T08:07:57.622Z,27.54
2022-07-30T08:10:57.145Z,27.07
2022-07-30T08:13:48.865Z,26.78
2022-07-30T08:16:38.627Z,26.19
2022-07-30T08:19:27.153Z,26.74
2022-07-30T08:22:23.910Z,26.66
2022-07-30T08:24:51.475Z,27.14
2022-07-30T08:27:19.125Z,27.32
2022-07-30T08:29:48.129Z,27.97
2022-07-30T08:32:18.517Z,28.70
2022-07-30T08:34:47.079Z,28.72
2022-07-30T08:37:15.729Z,28.97
2022-07-30T08:39:43.462Z,29.07
2022-07-30T08:42:11.221Z,27.81
2022-07-30T08:44:39.154Z,28.04
2022-07-30T08:47:09.044Z,28.38
2022-07-30T08:49:55.745Z,28.71
2022-07-30T08:52:27.702Z,28.04
2022-07-30T08:55:01.835Z,28.56
2022-07-30T08:57:30.878Z,28.78
2022-07-30T09:00:01.590Z,28.96
2022-07-30T09:02:32.563Z,28.92
2022-07-30T09:05:03.754Z,28.53
2022-07-30T09:07:33.483Z,28.74
2022-07-30T09:10:02.056Z,28.68
2022-07-30T09:12:35.672Z,28.19
2022-07-30T09:15:10.116Z,28.26
2022-07-30T09:17:51.097Z,27.92
2022-07-30T09:20:20.109Z,28.34
2022-07-30T09:22:50.107Z,28.70
2022-07-30T09:25:45.842Z,27.98
2022-07-30T09:28:34.194Z,27.99
2022-07-30T09:31:24.905Z,28.58
2022-07-30T09:34:27.081Z,28.47
2022-07-30T09:37:01.501Z,28.84
2022-07-30T09:39:59.493Z,28.30
2022-07-30T09:43:07.136Z,27.87
2022-07-30T09:45:35.558Z,27.77
2022-07-30T09:48:04.098Z,28.39
2022-07-30T09:50:33.314Z,28.72
2022-07-30T09:53:08.054Z,28.38
2022-07-30T09:55:41.885Z,28.41
2022-07-30T09:58:13.047Z,27.42
2022-07-30T10:00:48.431Z,28.01
2022-07-30T10:03:46.607Z,27.34
2022-07-30T10:06:38.077Z,27.77
2022-07-30T10:09:27.320Z,28.52
2022-07-30T10:11:55.696Z,28.90
2022-07-30T10:14:31.346Z,29.06
2022-07-30T10:17:00.370Z,29.42
2022-07-30T10:19:40.106Z,28.99
2022-07-30T10:22:29.689Z,28.97
2022-07-30T10:25:19.406Z,28.92
2022-07-30T10:28:07.019Z,29.12
2022-07-30T10:30:34.873Z,29.49
2022-07-30T10:33:06.316Z,29.43
2022-07-30T10:35:38.333Z,29.07
2022-07-30T10:38:13.974Z,28.93
2022-07-30T10:40:49.749Z,28.37
2022-07-30T10:43:36.184Z,28.79
2022-07-30T10:46:09.202Z,29.15
2022-07-30T10:48:48.180Z,29.31
2022-07-30T10:51:25.344Z,28.85
2022-07-30T10:54:03.494Z,28.76
2022-07-30T10:56:31.086Z,28.94
2022-07-30T10:59:03.340Z,29.36
2022-07-30T11:02:07.651Z,29.72
2022-07-30T11:04:35.512Z,29.19
2022-07-30T11:07:29.464Z,29.32
2022-07-30T11:10:08.759Z,29.03
2022-07-30T11:12:54.373Z,27.96
2022-07-30T11:15:22.645Z,28.02
2022-07-30T11:18:11.400Z,28.21
2022-07-30T11:20:40.598Z,28.53
2022-07-30T11:23:14.265Z,28.38
2022-07-30T11:25:51.185Z,29.02
2022-07-30T11:28:37.453Z,29.43
2022-07-30T11:31:10.086Z,29.04
2022-07-30T11:33:39.147Z,29.66
2022-07-30T11:36:10.634Z,30.02
2022-07-30T11:38:59.934Z,29.35
2022-07-30T11:41:36.094Z,29.08
2022-07-30T11:44:29.277Z,28.83
2022-07-30T11:46:57.029Z,29.36
2022-07-30T11:49:24.597Z,29.15
2022-07-30T11:51:52.219Z,29.65
2022-07-30T11:54:19.803Z,29.87
2022-07-30T11:56:53.187Z,30.47
2022-07-30T11:59:20.806Z,31.17
2022-07-30T12:01:52.801Z,30.71
2022-07-30T12:04:20.588Z,30.34
2022-07-30T12:06:49.182Z,30.46
2022-07-30T12:09:23.598Z,29.51
2022-07-30T12:11:57.048Z,29.33
2022-07-30T12:14:24.690Z,28.75
2022-07-30T12:16:54.047Z,29.14
2022-07-30T12:19:21.826Z,29.96
2022-07-30T12:21:53.315Z,30.44
2022-07-30T12:24:26.434Z,30.73
2022-07-30T12:26:54.211Z,30.19
2022-07-30T12:29:23.005Z,30.30
2022-07-30T12:31:53.445Z,30.16
2022-07-30T12:34:21.841Z,30.22
2022-07-30T12:36:49.485Z,30.76
2022-07-30T12:39:21.129Z,30.71
2022-07-30T12:41:50.391Z,30.92
2022-07-30T12:44:38.625Z,31.09
2022-07-30T12:47:07.718Z,31.21
2022-07-30T12:49:36.583Z,31.73
2022-07-30T12:52:13.268Z,31.96
2022-07-30T12:54:46.146Z,31.92
2022-07-30T12:57:13.633Z,31.53
2022-07-30T12:59:42.478Z,30.38
2022-07-30T13:02:10.017Z,29.82
2022-07-30T13:04:59.160Z,30.24
2022-07-30T13:07:53.936Z,31.56
2022-07-30T13:10:21.669Z,31.53
2022-07-30T13:12:49.167Z,29.99
2022-07-30T13:15:22.003Z,29.62
2022-07-30T13:17:50.296Z,29.48
2022-07-30T13:20:18.435Z,28.95
2022-07-30T13:22:46.306Z,30.08
2022-07-30T13:25:14.091Z,30.92
2022-07-30T13:27:41.561Z,30.77
2022-07-30T13:30:10.560Z,30.52
2022-07-30T13:32:39.447Z,29.34
2022-07-30T13:35:07.688Z,28.54
2022-07-30T13:37:37.616Z,27.81
2022-07-30T13:40:06.893Z,27.16
2022-07-30T13:42:34.847Z,27.29
2022-07-30T13:45:02.457Z,27.75
2022-07-30T13:47:29.955Z,28.26
2022-07-30T13:49:58.779Z,28.89
2022-07-30T13:52:26.580Z,28.55
2022-07-30T13:54:54.464Z,28.13
2022-07-30T13:57:22.020Z,27.47
2022-07-30T13:59:49.625Z,26.55
2022-07-30T14:02:17.501Z,26.36
2022-07-30T14:04:45.077Z,26.10
2022-07-30T14:07:13.965Z,25.69
2022-07-30T14:09:47.056Z,25.24
2022-07-30T14:12:16.049Z,25.37
2022-07-30T14:14:43.582Z,25.47
2022-07-30T14:17:11.155Z,25.37
2022-07-30T14:19:41.196Z,25.21
2022-07-30T14:22:08.931Z,24.98
2022-07-30T14:24:37.725Z,24.97
2022-07-30T14:27:05.969Z,24.64
2022-07-30T14:29:33.842Z,24.55
2022-07-30T14:32:01.406Z,24.69
2022-07-30T14:34:29.105Z,24.82
2022-07-30T14:36:56.631Z,24.86
2022-07-30T14:39:24.893Z,24.74
2022-07-30T14:41:55.781Z,24.76
2022-07-30T14:44:23.896Z,25.03
2022-07-30T14:46:52.663Z,24.96
2022-07-30T14:49:20.780Z,24.92
2022-07-30T14:51:48.500Z,25.08
2022-07-30T14:54:16.498Z,25.34
2022-07-30T14:56:44.060Z,25.46
2022-07-30T14:59:14.355Z,26.00
2022-07-30T15:01:42.154Z,26.81
2022-07-30T15:04:11.402Z,27.17
2022-07-30T15:06:40.708Z,27.55
2022-07-30T15:09:08.831Z,27.74
2022-07-30T15:12:04.310Z,27.33
2022-07-30T15:14:26.875Z,27.39
2022-07-30T15:16:59.374Z,28.02
2022-07-30T15:19:30.938Z,29.04
2022-07-30T15:21:58.895Z,29.43
2022-07-30T15:24:26.976Z,29.10
2022-07-30T15:26:55.855Z,29.07
2022-07-30T15:29:27.190Z,29.10
2022-07-30T15:31:54.733Z,29.23
2022-07-30T15:34:22.393Z,28.99
2022-07-30T15:36:49.879Z,28.56
2022-07-30T15:39:17.479Z,28.51
2022-07-30T15:41:45.988Z,27.98
2022-07-30T15:44:14.750Z,27.59
2022-07-30T15:46:43.574Z,27.61
2022-07-30T15:49:11.167Z,28.22
2022-07-30T15:51:43.725Z,29.18
2022-07-30T15:54:11.306Z,30.07
2022-07-30T15:56:38.921Z,29.32
2022-07-30T15:59:07.081Z,29.35
2022-07-30T16:01:34.666Z,29.90
2022-07-30T16:04:03.930Z,30.00
2022-07-30T16:06:32.324Z,29.93
2022-07-30T16:09:00.163Z,29.91
2022-07-30T16:11:27.730Z,29.80
2022-07-30T16:14:00.558Z,29.66
2022-07-30T16:16:28.201Z,29.25
2022-07-30T16:18:55.880Z,28.79
2022-07-30T16:21:24.795Z,28.39
2022-07-30T16:23:53.582Z,27.75
2022-07-30T16:26:21.577Z,27.79
2022-07-30T16:28:49.304Z,27.35
2022-07-30T16:31:17.072Z,26.82
2022-07-30T16:33:44.868Z,27.12
2022-07-30T16:36:14.167Z,26.78
2022-07-30T16:38:43.079Z,26.88
2022-07-30T16:41:13.366Z,26.78
2022-07-30T16:43:41.832Z,26.67
2022-07-30T16:46:10.803Z,26.35
2022-07-30T16:48:38.313Z,26.57
2022-07-30T16:51:06.942Z,26.72
2022-07-30T16:53:36.277Z,26.61
2022-07-30T16:56:05.866Z,26.30
2022-07-30T16:58:33.699Z,26.17
2022-07-30T17:01:01.507Z,25.88
2022-07-30T17:03:29.143Z,25.86
2022-07-30T17:05:56.655Z,25.59
2022-07-30T17:08:24.656Z,25.68
2022-07-30T17:10:52.926Z,25.35
2022-07-30T17:13:22.617Z,25.11
2022-07-30T17:15:50.213Z,25.05
2022-07-30T17:18:17.869Z,25.16
2022-07-30T17:20:45.470Z,25.09
2022-07-30T17:23:13.566Z,24.96
2022-07-30T17:25:41.103Z,24.98
2022-07-30T17:28:08.701Z,25.06
2022-07-30T17:30:37.569Z,24.88
2022-07-30T17:33:06.218Z,24.89
2022-07-30T17:35:34.133Z,24.80
2022-07-30T17:38:01.973Z,24.71
2022-07-30T17:40:31.598Z,24.61
2022-07-30T17:43:03.390Z,24.73
2022-07-30T17:45:31.583Z,24.70
2022-07-30T17:48:01.425Z,24.52
2022-07-30T17:50:29.320Z,24.53
2022-07-30T17:52:56.888Z,24.60
2022-07-30T17:55:24.634Z,24.61
2022-07-30T17:57:52.192Z,24.71
2022-07-30T18:00:19.741Z,24.45
2022-07-30T18:02:47.285Z,24.19
2022-07-30T18:05:16.311Z,24.21
2022-07-30T18:07:44.672Z,23.94
2022-07-30T18:10:12.716Z,23.88
2022-07-30T18:12:48.899Z,23.63
2022-07-30T18:15:17.439Z,23.55
2022-07-30T18:17:45.585Z,23.51
2022-07-30T18:20:13.286Z,23.14
2022-07-30T18:22:42.250Z,23.16
2022-07-30T18:25:18.760Z,22.97
2022-07-30T18:27:47.238Z,22.75
2022-07-30T18:30:15.230Z,22.59
2022-07-30T18:32:42.765Z,22.40
2022-07-30T18:35:14.165Z,22.25
2022-07-30T18:37:45.767Z,22.09
2022-07-30T18:40:14.922Z,21.67
2022-07-30T18:42:42.999Z,21.45
2022-07-30T18:45:13.773Z,21.43
2022-07-30T18:47:41.818Z,21.35
2022-07-30T18:50:09.956Z,21.27
2022-07-30T18:52:37.583Z,20.99
2022-07-30T18:55:08.179Z,21.00
2022-07-30T18:57:36.154Z,20.93
2022-07-30T19:00:05.777Z,20.89
2022-07-30T19:02:35.481Z,20.52
2022-07-30T19:05:03.027Z,20.33
2022-07-30T19:07:30.832Z,20.37
2022-07-30T19:10:20.194Z,20.30
2022-07-30T19:12:47.731Z,20.26
2022-07-30T19:15:15.371Z,20.09
2022-07-30T19:17:46.280Z,19.91
2022-07-30T19:20:14.531Z,19.92
2022-07-30T19:22:46.693Z,19.94
2022-07-30T19:25:14.720Z,19.78
2022-07-30T19:27:43.811Z,19.79
2022-07-30T19:30:12.566Z,19.70
2022-07-30T19:32:40.391Z,19.77
2022-07-30T19:35:13.273Z,19.84
2022-07-30T19:37:42.289Z,19.86
2022-07-30T19:40:10.920Z,19.84
2022-07-30T19:42:41.529Z,19.79
2022-07-30T19:45:13.330Z,19.67
2022-07-30T19:47:42.417Z,19.54
2022-07-30T19:50:11.535Z,19.57
2022-07-30T19:52:39.496Z,19.57
2022-07-30T19:55:30.860Z,19.58
2022-07-30T19:57:56.195Z,19.52
2022-07-30T20:00:26.351Z,19.49
2022-07-30T20:02:54.120Z,19.38
2022-07-30T20:05:24.678Z,19.23
2022-07-30T20:07:52.713Z,19.15
2022-07-30T20:10:20.301Z,19.08
2022-07-30T20:12:49.658Z,19.00
2022-07-30T20:15:18.298Z,18.96
2022-07-30T20:17:47.210Z,18.87
2022-07-30T20:20:14.845Z,18.83
2022-07-30T20:22:42.445Z,18.71
2022-07-30T20:25:11.113Z,18.57
2022-07-30T20:27:41.265Z,18.55
2022-07-30T20:30:11.921Z,18.56
2022-07-30T20:32:44.671Z,18.48
2022-07-30T20:35:15.894Z,18.54
2022-07-30T20:37:55.596Z,18.52
2022-07-30T20:40:26.824Z,18.43
2022-07-30T20:42:55.009Z,18.35
2022-07-30T20:45:24.766Z,18.32
2022-07-30T20:47:57.369Z,18.32
2022-07-30T20:50:30.636Z,18.47
2022-07-30T20:52:59.165Z,18.56
2022-07-30T20:55:26.810Z,18.61
2022-07-30T20:57:58.075Z,18.61
2022-07-30T21:00:49.817Z,18.71
2022-07-30T21:03:21.480Z,18.75
2022-07-30T21:05:52.866Z,18.67
2022-07-30T21:08:21.168Z,18.75
2022-07-30T21:10:53.074Z,18.84
2022-07-30T21:13:22.859Z,18.87
2022-07-30T21:16:03.059Z,19.00
2022-07-30T21:18:31.604Z,18.93
2022-07-30T21:21:04.976Z,18.97
2022-07-30T21:23:33.539Z,18.90
2022-07-30T21:26:04.936Z,18.87
2022-07-30T21:28:35.136Z,18.86
2022-07-30T21:31:03.970Z,18.71
2022-07-30T21:33:34.787Z,18.73
2022-07-30T21:36:03.782Z,18.84
2022-07-30T21:38:31.764Z,18.86
2022-07-30T21:41:00.141Z,18.74
2022-07-30T21:43:29.982Z,18.90
2022-07-30T21:45:58.117Z,18.93
2022-07-30T21:48:26.014Z,18.96
2022-07-30T21:50:54.419Z,19.07
2022-07-30T21:53:29.963Z,19.03
2022-07-30T21:56:12.067Z,19.17
2022-07-30T21:58:40.784Z,19.17
2022-07-30T22:01:17.467Z,19.23
2022-07-30T22:04:03.379Z,19.23
2022-07-30T22:06:34.352Z,19.14
2022-07-30T22:09:18.322Z,19.05
2022-07-30T22:11:50.919Z,19.12
2022-07-30T22:14:18.452Z,18.95
2022-07-30T22:16:46.996Z,19.17
2022-07-30T22:19:15.025Z,19.06
2022-07-30T22:21:42.827Z,19.06
2022-07-30T22:24:29.154Z,19.16
2022-07-30T22:27:00.004Z,19.18
2022-07-30T22:29:34.121Z,19.18
2022-07-30T22:32:03.906Z,19.06
2022-07-30T22:34:31.989Z,18.97
2022-07-30T22:36:59.516Z,18.89
2022-07-30T22:39:31.772Z,18.88
2022-07-30T22:42:00.789Z,18.88
2022-07-30T22:44:28.843Z,18.95
2022-07-30T22:46:56.647Z,18.97
2022-07-30T22:49:46.072Z,18.94
2022-07-30T22:52:21.999Z,18.89
2022-07-30T22:54:55.475Z,18.79
2022-07-30T22:57:23.560Z,18.92
2022-07-30T22:59:58.700Z,19.00
2022-07-30T23:02:28.295Z,19.06
2022-07-30T23:04:56.414Z,19.11
2022-07-30T23:07:44.245Z,19.06
2022-07-30T23:10:20.775Z,19.01
2022-07-30T23:12:50.909Z,19.05
2022-07-30T23:15:19.650Z,18.92
2022-07-30T23:17:47.529Z,18.92
2022-07-30T23:20:17.501Z,18.94
2022-07-30T23:22:45.171Z,18.91
2022-07-30T23:25:13.476Z,18.93
2022-07-30T23:27:43.041Z,18.82
2022-07-30T23:30:12.302Z,18.70
2022-07-30T23:32:40.700Z,18.59
2022-07-30T23:35:09.681Z,18.56
2022-07-30T23:37:47.678Z,18.42
2022-07-30T23:40:17.084Z,18.22
2022-07-30T23:42:45.952Z,18.04
2022-07-30T23:45:14.493Z,17.83
2022-07-30T23:48:02.081Z,17.75
2022-07-30T23:50:30.586Z,17.65
2022-07-30T23:52:58.297Z,17.49
2022-07-30T23:55:26.899Z,17.44
2022-07-30T23:57:55.936Z,17.40
